Wetterdaten: Woche 31.07.17 - 06.08.17 (KW31)
Datum Zeit Temp. A. Pool Temp. Feuchte A. Luftdruck Regen Wind Richtung Sonnenschein ET UV Solar Taupunkt Windchill Windben Empfang
31.07.2017 00:00 21,5 C 23,9 C 78 % 1013,8 hPa 0,0 l/m 9,5 km/h (2 Bft) SW 0,00 h 0,000 mm 0,0 UV-I 0 W/m 17,4 C 20,4 C 14,9 km/h (3 Bft) 95,57 %
31.07.2017 01:00 20,6 C 23,9 C 79 % 1013,3 hPa 0,0 l/m 3,9 km/h (1 Bft) S 0,00 h 0,025 mm 0,0 UV-I 0 W/m 16,9 C 20,6 C 6,5 km/h (2 Bft) 96,68 %
31.07.2017 02:00 19,6 C 23,9 C 83 % 1013,6 hPa 0,0 l/m 1,3 km/h (1 Bft) S 0,00 h 0,026 mm 0,0 UV-I 0 W/m 16,6 C 19,6 C 2,7 km/h (1 Bft) 96,79 %
31.07.2017 03:00 19,7 C 23,9 C 81 % 1013,9 hPa 0,0 l/m 4,3 km/h (1 Bft) SW 0,00 h 0,000 mm 0,0 UV-I 0 W/m 16,3 C 19,7 C 7,6 km/h (2 Bft) 97,15 %
31.07.2017 04:00 19,3 C 23,5 C 81 % 1014,9 hPa 0,0 l/m 10,0 km/h (2 Bft) SW 0,00 h 0,025 mm 0,0 UV-I 0 W/m 16,0 C 17,9 C 16,0 km/h (3 Bft) 95,67 %
31.07.2017 05:00 19,0 C 23,3 C 82 % 1014,8 hPa 0,0 l/m 6,9 km/h (2 Bft) SW 0,17 h 0,026 mm 0,0 UV-I 9 W/m 15,8 C 18,6 C 11,4 km/h (2 Bft) 97,27 %
31.07.2017 06:00 18,7 C 23,3 C 84 % 1014,8 hPa 0,0 l/m 3,0 km/h (1 Bft) S-SO 0,63 h 0,025 mm 0,0 UV-I 78 W/m 15,9 C 18,7 C 4,9 km/h (1 Bft) 95,71 %
31.07.2017 07:00 20,1 C 23,3 C 80 % 1015,0 hPa 0,0 l/m 4,1 km/h (1 Bft) O-NO 1,00 h 0,051 mm 0,6 UV-I 227 W/m 16,5 C 20,0 C 6,9 km/h (2 Bft) 97,15 %
31.07.2017 08:00 22,4 C 23,3 C 73 % 1015,1 hPa 0,0 l/m 6,9 km/h (2 Bft) NO 1,00 h 0,152 mm 1,3 UV-I 411 W/m 17,3 C 22,1 C 10,7 km/h (2 Bft) 94,41 %
31.07.2017 09:00 24,1 C 23,7 C 69 % 1015,3 hPa 0,0 l/m 5,0 km/h (1 Bft) N-NO 1,00 h 0,280 mm 2,5 UV-I 540 W/m 18,1 C 23,9 C 9,7 km/h (2 Bft) 96,25 %
31.07.2017 10:00 25,0 C 23,9 C 66 % 1015,5 hPa 0,0 l/m 3,5 km/h (1 Bft) NO 1,00 h 0,355 mm 3,6 UV-I 695 W/m 18,2 C 25,0 C 7,3 km/h (2 Bft) 95,86 %
31.07.2017 11:00 26,7 C 23,9 C 61 % 1015,3 hPa 0,0 l/m 4,5 km/h (1 Bft) N-NO 1,00 h 0,457 mm 5,3 UV-I 795 W/m 18,5 C 26,6 C 9,1 km/h (2 Bft) 95,73 %
31.07.2017 12:00 27,9 C 24,4 C 57 % 1015,2 hPa 0,0 l/m 3,9 km/h (1 Bft) N-NO 1,00 h 0,534 mm 6,1 UV-I 825 W/m 18,5 C 27,9 C 8,6 km/h (2 Bft) 95,11 %
31.07.2017 13:00 29,2 C 24,9 C 52 % 1014,9 hPa 0,0 l/m 6,6 km/h (2 Bft) N-NO 1,00 h 0,559 mm 6,3 UV-I 846 W/m 18,4 C 29,1 C 13,2 km/h (3 Bft) 96,86 %
31.07.2017 14:00 30,0 C 25,1 C 47 % 1014,6 hPa 0,0 l/m 7,9 km/h (2 Bft) NO 1,00 h 0,609 mm 5,6 UV-I 801 W/m 17,3 C 29,8 C 13,2 km/h (3 Bft) 97,17 %
31.07.2017 15:00 31,0 C 25,6 C 46 % 1014,3 hPa 0,0 l/m 8,1 km/h (2 Bft) N-NO 1,00 h 0,584 mm 4,4 UV-I 707 W/m 17,9 C 30,9 C 14,1 km/h (3 Bft) 94,57 %
31.07.2017 16:00 31,4 C 25,7 C 43 % 1013,9 hPa 0,0 l/m 10,7 km/h (2 Bft) NO 1,00 h 0,559 mm 2,9 UV-I 572 W/m 17,2 C 31,3 C 17,2 km/h (3 Bft) 97,42 %
31.07.2017 17:00 31,4 C 26,1 C 41 % 1013,5 hPa 0,0 l/m 12,1 km/h (2 Bft) NO 1,00 h 0,508 mm 1,6 UV-I 417 W/m 16,7 C 31,2 C 18,1 km/h (3 Bft) 95,14 %
31.07.2017 18:00 30,5 C 26,1 C 48 % 1013,2 hPa 0,0 l/m 8,1 km/h (2 Bft) N-NO 0,70 h 0,407 mm 0,7 UV-I 211 W/m 18,1 C 30,3 C 13,6 km/h (3 Bft) 94,65 %
31.07.2017 19:00 29,3 C 26,1 C 53 % 1013,4 hPa 0,0 l/m 2,3 km/h (1 Bft) N-NO 0,67 h 0,228 mm 0,0 UV-I 100 W/m 18,6 C 29,3 C 5,9 km/h (2 Bft) 95,54 %
31.07.2017 20:00 27,7 C 26,0 C 56 % 1014,0 hPa 0,0 l/m 1,1 km/h (1 Bft) N-NW 0,03 h 0,102 mm 0,0 UV-I 15 W/m 18,0 C 27,7 C 3,1 km/h (1 Bft) 95,65 %
31.07.2017 21:00 25,4 C 25,6 C 65 % 1014,6 hPa 0,0 l/m 0,6 km/h (0 Bft) O-NO 0,00 h 0,025 mm 0,0 UV-I 0 W/m 18,2 C 25,4 C 1,7 km/h (1 Bft) 94,40 %
31.07.2017 22:00 26,5 C 25,6 C 63 % 1014,5 hPa 0,0 l/m 9,9 km/h (2 Bft) O 0,00 h 0,026 mm 0,0 UV-I 0 W/m 18,9 C 25,8 C 15,5 km/h (3 Bft) 95,89 %
31.07.2017 23:00 25,1 C 25,6 C 68 % 1014,1 hPa 0,0 l/m 8,2 km/h (2 Bft) O-SO 0,00 h 0,076 mm 0,0 UV-I 0 W/m 18,7 C 24,7 C 12,5 km/h (3 Bft) 97,22 %
01.08.2017 00:00 22,5 C 25,6 C 79 % 1013,9 hPa 0,0 l/m 2,6 km/h (1 Bft) O-NO 0,00 h 0,000 mm 0,0 UV-I 0 W/m 18,5 C 22,4 C 4,0 km/h (1 Bft) 91,75 %
01.08.2017 01:00 22,0 C 25,2 C 82 % 1013,4 hPa 0,0 l/m 4,1 km/h (1 Bft) O-NO 0,00 h 0,025 mm 0,0 UV-I 0 W/m 18,8 C 22,0 C 5,6 km/h (1 Bft) 95,27 %
01.08.2017 02:00 21,5 C 25,0 C 84 % 1012,9 hPa 0,0 l/m 6,7 km/h (2 Bft) O-NO 0,00 h 0,026 mm 0,0 UV-I 0 W/m 18,7 C 21,3 C 9,4 km/h (2 Bft) 96,86 %
01.08.2017 03:00 20,5 C 25,0 C 85 % 1012,7 hPa 0,0 l/m 3,4 km/h (1 Bft) O-NO 0,00 h 0,025 mm 0,0 UV-I 0 W/m 17,9 C 20,5 C 5,5 km/h (1 Bft) 97,65 %
01.08.2017 04:00 18,9 C 25,0 C 89 % 1012,8 hPa 0,0 l/m 1,2 km/h (1 Bft) O-NO 0,00 h 0,000 mm 0,0 UV-I 0 W/m 17,2 C 18,9 C 2,6 km/h (1 Bft) 97,07 %
01.08.2017 05:00 18,0 C 25,0 C 92 % 1013,0 hPa 0,0 l/m 2,3 km/h (1 Bft) S-SW 0,13 h 0,000 mm 0,0 UV-I 10 W/m 16,7 C 18,0 C 3,6 km/h (1 Bft) 95,81 %
01.08.2017 06:00 18,0 C 25,0 C 93 % 1013,1 hPa 0,0 l/m 0,3 km/h (0 Bft) S-SW 0,73 h 0,000 mm 0,0 UV-I 72 W/m 16,8 C 18,0 C 0,9 km/h (0 Bft) 96,20 %
01.08.2017 07:00 20,1 C 25,0 C 89 % 1013,4 hPa 0,0 l/m 1,0 km/h (0 Bft) S-SW 1,00 h 0,051 mm 0,6 UV-I 214 W/m 18,2 C 20,1 C 2,3 km/h (1 Bft) 96,16 %
01.08.2017 08:00 23,0 C 25,0 C 78 % 1013,5 hPa 0,0 l/m 3,3 km/h (1 Bft) NO 1,00 h 0,127 mm 1,2 UV-I 387 W/m 18,8 C 22,9 C 5,9 km/h (2 Bft) 95,53 %
01.08.2017 09:00 25,2 C 25,0 C 69 % 1013,9 hPa 0,0 l/m 3,5 km/h (1 Bft) NO 1,00 h 0,254 mm 2,4 UV-I 548 W/m 19,1 C 25,1 C 6,1 km/h (2 Bft) 94,49 %
01.08.2017 10:00 27,3 C 25,0 C 63 % 1014,1 hPa 0,0 l/m 2,3 km/h (1 Bft) N-NO 0,97 h 0,356 mm 3,7 UV-I 683 W/m 19,7 C 27,3 C 5,1 km/h (1 Bft) 96,75 %
01.08.2017 11:00 29,3 C 25,6 C 58 % 1014,0 hPa 0,0 l/m 2,1 km/h (1 Bft) N-NO 1,03 h 0,457 mm 5,1 UV-I 785 W/m 20,2 C 29,3 C 4,5 km/h (1 Bft) 98,47 %
01.08.2017 12:00 31,1 C 25,8 C 49 % 1013,8 hPa 0,0 l/m 3,4 km/h (1 Bft) NO 1,00 h 0,533 mm 6,0 UV-I 844 W/m 19,3 C 31,1 C 6,5 km/h (2 Bft) 95,36 %
01.08.2017 13:00 32,9 C 26,1 C 43 % 1013,2 hPa 0,0 l/m 4,6 km/h (1 Bft) NO 1,00 h 0,610 mm 6,1 UV-I 851 W/m 18,4 C 32,9 C 8,3 km/h (2 Bft) 97,21 %
01.08.2017 14:00 34,0 C 26,6 C 38 % 1012,6 hPa 0,0 l/m 4,1 km/h (1 Bft) N-NO 1,00 h 0,635 mm 5,5 UV-I 805 W/m 17,4 C 34,0 C 8,4 km/h (2 Bft) 95,95 %
01.08.2017 15:00 34,6 C 26,9 C 31 % 1012,2 hPa 0,0 l/m 3,9 km/h (1 Bft) NO 1,00 h 0,609 mm 4,3 UV-I 712 W/m 14,7 C 34,6 C 7,3 km/h (2 Bft) 97,54 %
01.08.2017 16:00 34,9 C 27,2 C 32 % 1011,9 hPa 0,0 l/m 5,6 km/h (1 Bft) N-NO 1,00 h 0,559 mm 2,9 UV-I 579 W/m 15,6 C 34,9 C 10,8 km/h (2 Bft) 95,68 %
01.08.2017 17:00 34,7 C 27,2 C 32 % 1011,2 hPa 0,0 l/m 8,5 km/h (2 Bft) NO 1,00 h 0,483 mm 1,6 UV-I 420 W/m 15,6 C 34,7 C 13,5 km/h (3 Bft) 96,61 %
01.08.2017 18:00 33,8 C 27,2 C 37 % 1010,6 hPa 0,0 l/m 8,8 km/h (2 Bft) NO 1,00 h 0,406 mm 0,7 UV-I 247 W/m 17,1 C 33,8 C 14,1 km/h (3 Bft) 96,47 %
01.08.2017 19:00 32,0 C 27,2 C 41 % 1010,3 hPa 0,0 l/m 5,8 km/h (2 Bft) NO 0,77 h 0,280 mm 0,0 UV-I 99 W/m 17,1 C 32,0 C 8,8 km/h (2 Bft) 97,46 %
01.08.2017 20:00 29,5 C 27,2 C 51 % 1010,1 hPa 0,0 l/m 3,3 km/h (1 Bft) O-NO 0,03 h 0,127 mm 0,0 UV-I 11 W/m 18,1 C 29,5 C 5,2 km/h (1 Bft) 97,41 %
01.08.2017 21:00 28,1 C 27,2 C 57 % 1009,9 hPa 0,0 l/m 5,0 km/h (1 Bft) O-NO 0,00 h 0,050 mm 0,0 UV-I 0 W/m 18,9 C 28,1 C 7,7 km/h (2 Bft) 96,26 %
01.08.2017 22:00 26,0 C 27,2 C 67 % 1010,6 hPa 0,0 l/m 2,6 km/h (1 Bft) O-NO 0,00 h 0,051 mm 0,0 UV-I 0 W/m 19,3 C 26,0 C 4,1 km/h (1 Bft) 96,99 %
01.08.2017 23:00 26,0 C 26,7 C 66 % 1013,1 hPa 0,0 l/m 19,0 km/h (3 Bft) S-SW 0,00 h 0,026 mm 0,0 UV-I 0 W/m 19,0 C 24,4 C 28,8 km/h (4 Bft) 98,74 %
02.08.2017 00:00 25,1 C 26,7 C 66 % 1014,7 hPa 0,0 l/m 16,1 km/h (3 Bft) W-SW 0,00 h 0,000 mm 0,0 UV-I 0 W/m 18,3 C 23,7 C 27,4 km/h (4 Bft) 98,39 %
02.08.2017 01:00 22,3 C 26,7 C 80 % 1013,9 hPa 0,0 l/m 5,9 km/h (2 Bft) W-SW 0,00 h 0,102 mm 0,0 UV-I 0 W/m 18,7 C 22,0 C 10,1 km/h (2 Bft) 97,82 %
02.08.2017 02:00 22,0 C 26,3 C 79 % 1014,7 hPa 0,0 l/m 5,4 km/h (1 Bft) W-SW 0,00 h 0,025 mm 0,0 UV-I 0 W/m 18,2 C 21,8 C 8,8 km/h (2 Bft) 96,96 %
02.08.2017 03:00 21,7 C 26,1 C 79 % 1014,9 hPa 0,0 l/m 4,2 km/h (1 Bft) S 0,00 h 0,025 mm 0,0 UV-I 0 W/m 17,8 C 21,7 C 7,8 km/h (2 Bft) 99,08 %
02.08.2017 04:00 21,4 C 26,1 C 78 % 1015,8 hPa 0,0 l/m 9,6 km/h (2 Bft) W-SW 0,00 h 0,026 mm 0,0 UV-I 0 W/m 17,5 C 20,3 C 14,8 km/h (3 Bft) 98,41 %
02.08.2017 05:00 21,1 C 26,1 C 83 % 1016,8 hPa 0,0 l/m 8,5 km/h (2 Bft) SW 0,03 h 0,025 mm 0,0 UV-I 7 W/m 18,1 C 20,4 C 13,7 km/h (3 Bft) 97,86 %
02.08.2017 06:00 21,1 C 26,1 C 83 % 1018,2 hPa 0,0 l/m 12,3 km/h (3 Bft) W-SW 0,00 h 0,026 mm 0,0 UV-I 34 W/m 18,1 C 19,3 C 19,1 km/h (3 Bft) 97,38 %
02.08.2017 07:00 21,9 C 25,7 C 79 % 1019,6 hPa 0,0 l/m 12,5 km/h (3 Bft) W-SW 0,17 h 0,050 mm 0,0 UV-I 107 W/m 18,1 C 20,1 C 19,5 km/h (3 Bft) 98,64 %
02.08.2017 08:00 21,9 C 25,6 C 77 % 1018,7 hPa 0,0 l/m 6,7 km/h (2 Bft) SW 0,00 h 0,102 mm 0,7 UV-I 79 W/m 17,7 C 21,5 C 10,6 km/h (2 Bft) 96,89 %
02.08.2017 09:00 23,4 C 25,9 C 71 % 1018,3 hPa 0,0 l/m 2,3 km/h (1 Bft) SW 0,60 h 0,076 mm 2,1 UV-I 417 W/m 17,7 C 23,4 C 5,1 km/h (1 Bft) 96,56 %
02.08.2017 10:00 26,0 C 26,1 C 58 % 1017,9 hPa 0,0 l/m 2,9 km/h (1 Bft) N 1,00 h 0,280 mm 3,7 UV-I 729 W/m 17,0 C 26,0 C 6,2 km/h (2 Bft) 95,28 %
02.08.2017 11:00 27,0 C 26,1 C 57 % 1017,6 hPa 0,0 l/m 3,8 km/h (1 Bft) N-NO 0,97 h 0,457 mm 4,8 UV-I 761 W/m 17,7 C 27,0 C 8,1 km/h (2 Bft) 97,95 %
02.08.2017 12:00 27,8 C 26,6 C 55 % 1017,4 hPa 0,0 l/m 4,2 km/h (1 Bft) N-NO 1,00 h 0,508 mm 5,6 UV-I 798 W/m 18,0 C 27,8 C 9,9 km/h (2 Bft) 96,87 %
02.08.2017 13:00 28,6 C 26,8 C 52 % 1017,1 hPa 0,0 l/m 3,3 km/h (1 Bft) NO 1,00 h 0,559 mm 5,9 UV-I 833 W/m 17,9 C 28,6 C 6,8 km/h (2 Bft) 96,68 %
02.08.2017 14:00 29,8 C 27,2 C 52 % 1016,6 hPa 0,0 l/m 4,1 km/h (1 Bft) N-NO 1,00 h 0,558 mm 5,4 UV-I 800 W/m 18,7 C 29,8 C 9,0 km/h (2 Bft) 97,86 %
02.08.2017 15:00 30,2 C 27,3 C 49 % 1016,3 hPa 0,0 l/m 3,6 km/h (1 Bft) N-NO 0,87 h 0,559 mm 3,6 UV-I 591 W/m 18,4 C 30,2 C 7,6 km/h (2 Bft) 95,93 %
02.08.2017 16:00 30,3 C 27,8 C 50 % 1016,3 hPa 0,0 l/m 1,7 km/h (1 Bft) N-NO 0,83 h 0,432 mm 2,6 UV-I 496 W/m 18,7 C 30,3 C 4,3 km/h (1 Bft) 98,01 %
02.08.2017 17:00 30,5 C 27,8 C 51 % 1016,0 hPa 0,0 l/m 3,3 km/h (1 Bft) N-NO 0,77 h 0,356 mm 1,5 UV-I 382 W/m 19,1 C 30,5 C 6,2 km/h (2 Bft) 96,86 %
02.08.2017 18:00 30,4 C 27,8 C 52 % 1015,5 hPa 0,0 l/m 4,6 km/h (1 Bft) N-NO 1,00 h 0,279 mm 0,7 UV-I 260 W/m 19,4 C 30,4 C 7,0 km/h (2 Bft) 95,25 %
02.08.2017 19:00 29,5 C 27,8 C 52 % 1015,5 hPa 0,0 l/m 6,2 km/h (2 Bft) O-NO 0,73 h 0,229 mm 0,0 UV-I 111 W/m 18,5 C 29,5 C 10,2 km/h (2 Bft) 97,58 %
02.08.2017 20:00 26,4 C 27,8 C 54 % 1015,6 hPa 0,0 l/m 4,7 km/h (1 Bft) S 0,03 h 0,127 mm 0,0 UV-I 11 W/m 16,4 C 26,4 C 8,8 km/h (2 Bft) 96,63 %
02.08.2017 21:00 24,5 C 27,2 C 60 % 1016,2 hPa 0,0 l/m 3,6 km/h (1 Bft) S 0,00 h 0,050 mm 0,0 UV-I 0 W/m 16,3 C 24,5 C 6,0 km/h (2 Bft) 96,50 %
02.08.2017 22:00 22,1 C 27,2 C 72 % 1016,3 hPa 0,0 l/m 1,5 km/h (1 Bft) S 0,00 h 0,026 mm 0,0 UV-I 0 W/m 16,6 C 22,1 C 2,6 km/h (1 Bft) 95,71 %
02.08.2017 23:00 20,8 C 27,2 C 77 % 1016,5 hPa 0,0 l/m 1,5 km/h (1 Bft) W-SW 0,00 h 0,025 mm 0,0 UV-I 0 W/m 16,7 C 20,8 C 3,1 km/h (1 Bft) 98,08 %
03.08.2017 00:00 20,2 C 27,2 C 79 % 1016,4 hPa 0,0 l/m 1,3 km/h (1 Bft) SW 0,00 h 0,000 mm 0,0 UV-I 0 W/m 16,4 C 20,2 C 2,8 km/h (1 Bft) 96,22 %
03.08.2017 01:00 18,7 C 26,9 C 85 % 1016,4 hPa 0,0 l/m 1,3 km/h (1 Bft) O 0,00 h 0,000 mm 0,0 UV-I 0 W/m 16,2 C 18,7 C 2,3 km/h (1 Bft) 95,59 %
03.08.2017 02:00 18,1 C 26,7 C 87 % 1016,0 hPa 0,0 l/m 1,2 km/h (1 Bft) O 0,00 h 0,000 mm 0,0 UV-I 0 W/m 15,9 C 18,1 C 2,3 km/h (1 Bft) 96,07 %
03.08.2017 03:00 17,6 C 26,7 C 89 % 1015,6 hPa 0,0 l/m 2,0 km/h (1 Bft) S 0,00 h 0,000 mm 0,0 UV-I 0 W/m 15,7 C 17,6 C 3,8 km/h (1 Bft) 98,18 %
03.08.2017 04:00 17,0 C 26,6 C 90 % 1015,2 hPa 0,0 l/m 1,7 km/h (1 Bft) S-SO 0,00 h 0,000 mm 0,0 UV-I 0 W/m 15,4 C 17,0 C 3,3 km/h (1 Bft) 96,56 %
03.08.2017 05:00 16,6 C 26,1 C 91 % 1015,3 hPa 0,0 l/m 0,3 km/h (0 Bft) S-SO 0,10 h 0,000 mm 0,0 UV-I 11 W/m 15,2 C 16,6 C 1,1 km/h (0 Bft) 96,66 %
03.08.2017 06:00 16,8 C 26,1 C 92 % 1015,1 hPa 0,0 l/m 0,0 km/h (0 Bft) N 0,83 h 0,000 mm 0,0 UV-I 69 W/m 15,4 C 16,8 C 0,0 km/h (0 Bft) 95,98 %
03.08.2017 07:00 19,3 C 26,1 C 87 % 1014,7 hPa 0,0 l/m 1,5 km/h (1 Bft) O-NO 1,00 h 0,051 mm 0,6 UV-I 203 W/m 17,0 C 19,3 C 2,8 km/h (1 Bft) 97,85 %
03.08.2017 08:00 21,9 C 26,1 C 76 % 1014,4 hPa 0,0 l/m 4,7 km/h (1 Bft) NO 1,00 h 0,127 mm 1,2 UV-I 368 W/m 17,4 C 21,9 C 7,4 km/h (2 Bft) 93,94 %
03.08.2017 09:00 24,1 C 26,4 C 68 % 1014,2 hPa 0,0 l/m 5,3 km/h (1 Bft) O-NO 1,00 h 0,228 mm 2,3 UV-I 523 W/m 17,8 C 24,0 C 8,8 km/h (2 Bft) 96,95 %
03.08.2017 10:00 26,2 C 26,7 C 62 % 1013,7 hPa 0,0 l/m 4,7 km/h (1 Bft) O-NO 1,00 h 0,356 mm 3,8 UV-I 662 W/m 18,4 C 26,2 C 8,7 km/h (2 Bft) 96,55 %
03.08.2017 11:00 28,4 C 26,7 C 58 % 1013,2 hPa 0,0 l/m 4,3 km/h (1 Bft) N-NO 1,00 h 0,457 mm 5,1 UV-I 751 W/m 19,3 C 28,4 C 8,5 km/h (2 Bft) 98,07 %
03.08.2017 12:00 30,0 C 27,1 C 54 % 1012,6 hPa 0,0 l/m 3,4 km/h (1 Bft) N-NO 1,00 h 0,534 mm 6,0 UV-I 809 W/m 19,6 C 30,0 C 7,0 km/h (2 Bft) 96,38 %
03.08.2017 13:00 31,7 C 27,2 C 50 % 1012,3 hPa 0,0 l/m 3,4 km/h (1 Bft) N-NW 1,00 h 0,558 mm 6,0 UV-I 812 W/m 19,9 C 31,7 C 7,8 km/h (2 Bft) 98,13 %
03.08.2017 14:00 33,0 C 27,8 C 45 % 1012,3 hPa 0,0 l/m 7,3 km/h (2 Bft) SW 1,00 h 0,585 mm 5,2 UV-I 743 W/m 19,3 C 33,0 C 15,6 km/h (3 Bft) 95,72 %
03.08.2017 15:00 31,8 C 27,8 C 48 % 1012,6 hPa 0,0 l/m 6,3 km/h (2 Bft) W 0,50 h 0,584 mm 2,8 UV-I 431 W/m 19,2 C 31,8 C 14,2 km/h (3 Bft) 97,44 %
03.08.2017 16:00 31,0 C 27,8 C 50 % 1012,5 hPa 0,0 l/m 3,5 km/h (1 Bft) NW 0,13 h 0,381 mm 1,8 UV-I 290 W/m 19,3 C 31,0 C 8,6 km/h (2 Bft) 97,72 %
03.08.2017 17:00 29,9 C 27,8 C 54 % 1012,3 hPa 0,0 l/m 1,4 km/h (1 Bft) NW 0,00 h 0,228 mm 0,9 UV-I 193 W/m 19,7 C 29,9 C 3,9 km/h (1 Bft) 94,86 %
03.08.2017 18:00 29,3 C 27,8 C 58 % 1012,4 hPa 0,0 l/m 0,7 km/h (0 Bft) NW 0,13 h 0,153 mm 0,0 UV-I 110 W/m 20,1 C 29,3 C 2,3 km/h (1 Bft) 97,63 %
03.08.2017 19:00 28,2 C 27,8 C 65 % 1012,5 hPa 0,0 l/m 2,6 km/h (1 Bft) W 0,07 h 0,101 mm 0,0 UV-I 63 W/m 20,9 C 28,2 C 4,6 km/h (1 Bft) 96,94 %
03.08.2017 20:00 26,6 C 27,8 C 64 % 1012,4 hPa 0,0 l/m 6,4 km/h (2 Bft) S-SO 0,40 h 0,051 mm 0,0 UV-I 19 W/m 19,2 C 26,5 C 11,5 km/h (2 Bft) 98,03 %
03.08.2017 21:00 24,6 C 27,8 C 64 % 1012,3 hPa 0,0 l/m 3,6 km/h (1 Bft) S-SO 0,00 h 0,051 mm 0,0 UV-I 0 W/m 17,3 C 24,6 C 7,6 km/h (2 Bft) 95,60 %
03.08.2017 22:00 23,2 C 27,7 C 70 % 1012,3 hPa 0,0 l/m 2,9 km/h (1 Bft) S-SW 0,00 h 0,025 mm 0,0 UV-I 0 W/m 17,4 C 23,2 C 5,8 km/h (2 Bft) 99,02 %
03.08.2017 23:00 21,7 C 27,2 C 77 % 1012,0 hPa 0,0 l/m 1,7 km/h (1 Bft) W-NW 0,00 h 0,026 mm 0,0 UV-I 0 W/m 17,5 C 21,7 C 3,4 km/h (1 Bft) 98,50 %
04.08.2017 00:00 21,6 C 27,2 C 78 % 1012,0 hPa 0,0 l/m 3,3 km/h (1 Bft) NO 0,00 h 0,000 mm 0,0 UV-I 0 W/m 17,5 C 21,6 C 5,0 km/h (1 Bft) 96,03 %
04.08.2017 01:00 21,5 C 27,2 C 79 % 1011,6 hPa 0,0 l/m 2,1 km/h (1 Bft) O-NO 0,00 h 0,025 mm 0,0 UV-I 0 W/m 17,7 C 21,5 C 3,5 km/h (1 Bft) 96,10 %
04.08.2017 02:00 20,8 C 27,2 C 83 % 1011,5 hPa 0,0 l/m 1,2 km/h (1 Bft) O-NO 0,00 h 0,026 mm 0,0 UV-I 0 W/m 17,8 C 20,8 C 2,3 km/h (1 Bft) 99,26 %
04.08.2017 03:00 20,3 C 27,1 C 85 % 1011,4 hPa 0,0 l/m 1,7 km/h (1 Bft) S-SW 0,00 h 0,000 mm 0,0 UV-I 0 W/m 17,7 C 20,3 C 3,4 km/h (1 Bft) 98,53 %
04.08.2017 04:00 20,0 C 26,7 C 86 % 1011,0 hPa 0,0 l/m 2,2 km/h (1 Bft) SO 0,00 h 0,000 mm 0,0 UV-I 0 W/m 17,5 C 20,0 C 3,7 km/h (1 Bft) 98,29 %
04.08.2017 05:00 20,0 C 26,7 C 85 % 1011,1 hPa 0,0 l/m 2,9 km/h (1 Bft) SO 0,03 h 0,000 mm 0,0 UV-I 7 W/m 17,4 C 20,0 C 4,9 km/h (1 Bft) 96,72 %
04.08.2017 06:00 20,5 C 26,7 C 83 % 1011,8 hPa 0,0 l/m 2,1 km/h (1 Bft) SW 0,30 h 0,000 mm 0,0 UV-I 59 W/m 17,6 C 20,5 C 4,2 km/h (1 Bft) 98,62 %
04.08.2017 07:00 21,6 C 26,7 C 81 % 1012,2 hPa 0,0 l/m 4,4 km/h (1 Bft) S-SW 0,00 h 0,051 mm 0,0 UV-I 65 W/m 18,3 C 21,6 C 7,1 km/h (2 Bft) 97,78 %
04.08.2017 08:00 22,6 C 26,7 C 81 % 1012,7 hPa 0,0 l/m 5,8 km/h (2 Bft) W-SW 0,00 h 0,050 mm 0,6 UV-I 98 W/m 19,1 C 22,5 C 9,3 km/h (2 Bft) 97,40 %
04.08.2017 09:00 23,8 C 26,7 C 78 % 1012,9 hPa 0,0 l/m 2,1 km/h (1 Bft) W-SW 0,03 h 0,077 mm 1,4 UV-I 216 W/m 19,6 C 23,8 C 4,5 km/h (1 Bft) 96,22 %
04.08.2017 10:00 25,2 C 26,7 C 76 % 1012,9 hPa 0,0 l/m 3,9 km/h (1 Bft) SW 0,70 h 0,152 mm 3,1 UV-I 481 W/m 20,7 C 25,2 C 7,5 km/h (2 Bft) 97,75 %
04.08.2017 11:00 26,4 C 26,8 C 72 % 1012,6 hPa 0,0 l/m 3,6 km/h (1 Bft) W-SW 0,82 h 0,330 mm 4,3 UV-I 547 W/m 21,0 C 26,4 C 7,2 km/h (2 Bft) 96,88 %
04.08.2017 12:00 28,4 C 27,2 C 65 % 1012,1 hPa 0,0 l/m 4,2 km/h (1 Bft) NO 1,00 h 0,381 mm 5,9 UV-I 798 W/m 21,3 C 28,4 C 7,9 km/h (2 Bft) 96,48 %
04.08.2017 13:00 29,0 C 27,2 C 62 % 1011,6 hPa 0,0 l/m 3,3 km/h (1 Bft) NW 0,77 h 0,534 mm 5,7 UV-I 685 W/m 20,9 C 29,0 C 7,7 km/h (2 Bft) 98,53 %
04.08.2017 14:00 29,6 C 27,8 C 59 % 1011,2 hPa 0,0 l/m 4,3 km/h (1 Bft) NW 1,00 h 0,482 mm 5,2 UV-I 735 W/m 20,6 C 29,5 C 9,2 km/h (2 Bft) 97,51 %
04.08.2017 15:00 30,0 C 27,9 C 55 % 1010,9 hPa 0,0 l/m 4,2 km/h (1 Bft) N-NW 1,00 h 0,508 mm 4,2 UV-I 681 W/m 20,0 C 29,9 C 9,1 km/h (2 Bft) 95,79 %
04.08.2017 16:00 30,1 C 28,3 C 55 % 1010,8 hPa 0,0 l/m 4,8 km/h (1 Bft) N 0,88 h 0,483 mm 2,5 UV-I 523 W/m 20,2 C 30,1 C 11,5 km/h (2 Bft) 97,38 %
04.08.2017 17:00 29,6 C 28,3 C 58 % 1010,7 hPa 0,0 l/m 4,9 km/h (1 Bft) NW 0,90 h 0,355 mm 1,4 UV-I 379 W/m 20,3 C 29,5 C 11,4 km/h (2 Bft) 95,67 %
04.08.2017 18:00 29,4 C 28,3 C 59 % 1010,4 hPa 0,0 l/m 3,4 km/h (1 Bft) NW 0,73 h 0,280 mm 0,6 UV-I 219 W/m 20,6 C 29,4 C 7,8 km/h (2 Bft) 95,59 %
04.08.2017 19:00 28,4 C 28,3 C 63 % 1011,1 hPa 0,0 l/m 2,6 km/h (1 Bft) W-NW 0,77 h 0,178 mm 0,0 UV-I 107 W/m 20,6 C 28,4 C 5,9 km/h (2 Bft) 96,00 %
04.08.2017 20:00 27,4 C 28,3 C 65 % 1011,9 hPa 0,0 l/m 1,6 km/h (1 Bft) W 0,43 h 0,101 mm 0,0 UV-I 32 W/m 20,1 C 27,4 C 4,7 km/h (1 Bft) 96,03 %
04.08.2017 21:00 26,2 C 28,3 C 68 % 1012,6 hPa 0,0 l/m 0,6 km/h (0 Bft) W-NW 0,00 h 0,051 mm 0,0 UV-I 0 W/m 19,8 C 26,2 C 1,5 km/h (1 Bft) 94,33 %
04.08.2017 22:00 25,2 C 28,3 C 74 % 1013,1 hPa 0,0 l/m 1,0 km/h (0 Bft) SW 0,00 h 0,025 mm 0,0 UV-I 0 W/m 20,1 C 25,2 C 2,0 km/h (1 Bft) 95,69 %
04.08.2017 23:00 24,6 C 28,0 C 76 % 1013,3 hPa 0,0 l/m 3,6 km/h (1 Bft) S 0,00 h 0,026 mm 0,0 UV-I 0 W/m 20,1 C 24,6 C 6,6 km/h (2 Bft) 95,97 %
05.08.2017 00:00 24,1 C 27,8 C 79 % 1013,4 hPa 0,0 l/m 3,1 km/h (1 Bft) S 0,00 h 0,000 mm 0,0 UV-I 0 W/m 20,1 C 24,1 C 5,5 km/h (1 Bft) 79,53 %
05.08.2017 01:00 23,7 C 27,8 C 72 % 1013,4 hPa 0,0 l/m 3,6 km/h (1 Bft) W-SW 0,00 h 0,025 mm 0,0 UV-I 0 W/m 18,2 C 23,7 C 6,1 km/h (2 Bft) 96,06 %
05.08.2017 02:00 22,6 C 27,8 C 68 % 1013,5 hPa 0,0 l/m 5,2 km/h (1 Bft) W-SW 0,00 h 0,026 mm 0,0 UV-I 0 W/m 16,3 C 22,6 C 9,1 km/h (2 Bft) 95,87 %
05.08.2017 03:00 21,9 C 27,5 C 68 % 1013,9 hPa 0,0 l/m 4,0 km/h (1 Bft) W-SW 0,00 h 0,025 mm 0,0 UV-I 0 W/m 15,7 C 21,9 C 6,0 km/h (2 Bft) 96,99 %
05.08.2017 04:00 21,5 C 27,2 C 68 % 1014,0 hPa 0,0 l/m 5,5 km/h (1 Bft) SW 0,00 h 0,026 mm 0,0 UV-I 0 W/m 15,4 C 21,5 C 8,7 km/h (2 Bft) 97,42 %
05.08.2017 05:00 21,3 C 27,2 C 69 % 1013,9 hPa 0,0 l/m 3,5 km/h (1 Bft) SW 0,03 h 0,025 mm 0,0 UV-I 7 W/m 15,3 C 21,3 C 5,7 km/h (1 Bft) 97,00 %
05.08.2017 06:00 21,1 C 27,2 C 70 % 1014,0 hPa 0,0 l/m 2,6 km/h (1 Bft) SW 0,00 h 0,025 mm 0,0 UV-I 26 W/m 15,4 C 21,1 C 4,5 km/h (1 Bft) 95,65 %
05.08.2017 07:00 21,7 C 27,2 C 67 % 1014,2 hPa 0,0 l/m 3,0 km/h (1 Bft) SW 0,33 h 0,026 mm 0,5 UV-I 143 W/m 15,3 C 21,7 C 5,5 km/h (1 Bft) 98,36 %
05.08.2017 08:00 22,5 C 27,2 C 63 % 1014,3 hPa 0,0 l/m 1,2 km/h (1 Bft) W-NW 0,00 h 0,101 mm 0,7 UV-I 169 W/m 15,1 C 22,5 C 3,3 km/h (1 Bft) 98,38 %
05.08.2017 09:00 23,2 C 27,2 C 58 % 1014,1 hPa 0,0 l/m 1,7 km/h (1 Bft) N-NO 0,27 h 0,127 mm 1,8 UV-I 296 W/m 14,4 C 23,2 C 4,3 km/h (1 Bft) 98,02 %
05.08.2017 10:00 24,4 C 27,2 C 53 % 1013,8 hPa 0,0 l/m 2,3 km/h (1 Bft) N-NO 1,00 h 0,204 mm 3,1 UV-I 505 W/m 14,1 C 24,4 C 4,6 km/h (1 Bft) 96,37 %
05.08.2017 11:00 25,2 C 27,2 C 52 % 1013,7 hPa 0,0 l/m 2,8 km/h (1 Bft) S-SW 0,67 h 0,330 mm 4,1 UV-I 514 W/m 14,7 C 25,2 C 5,9 km/h (2 Bft) 99,22 %
05.08.2017 12:00 26,2 C 27,2 C 51 % 1013,3 hPa 0,0 l/m 2,5 km/h (1 Bft) NW 0,23 h 0,381 mm 4,6 UV-I 427 W/m 15,2 C 26,2 C 5,5 km/h (1 Bft) 98,08 %
05.08.2017 13:00 26,8 C 27,7 C 52 % 1012,9 hPa 0,0 l/m 3,7 km/h (1 Bft) S-SO 0,77 h 0,381 mm 5,2 UV-I 625 W/m 16,1 C 26,7 C 7,1 km/h (2 Bft) 97,80 %
05.08.2017 14:00 28,0 C 27,8 C 51 % 1012,5 hPa 0,0 l/m 4,5 km/h (1 Bft) O 1,00 h 0,432 mm 5,7 UV-I 773 W/m 17,0 C 28,0 C 7,8 km/h (2 Bft) 97,13 %
05.08.2017 15:00 29,3 C 28,2 C 50 % 1012,0 hPa 0,0 l/m 4,2 km/h (1 Bft) S-SO 1,00 h 0,533 mm 4,4 UV-I 692 W/m 17,6 C 29,2 C 8,5 km/h (2 Bft) 98,85 %
05.08.2017 16:00 30,1 C 28,3 C 47 % 1011,7 hPa 0,0 l/m 4,8 km/h (1 Bft) W 1,00 h 0,483 mm 2,9 UV-I 565 W/m 17,6 C 30,0 C 8,9 km/h (2 Bft) 96,25 %
05.08.2017 17:00 30,0 C 28,3 C 47 % 1011,4 hPa 0,0 l/m 3,7 km/h (1 Bft) W-NW 0,70 h 0,431 mm 1,4 UV-I 320 W/m 17,6 C 30,0 C 7,3 km/h (2 Bft) 98,18 %
05.08.2017 18:00 29,0 C 28,3 C 51 % 1011,4 hPa 0,0 l/m 2,0 km/h (1 Bft) W 0,17 h 0,254 mm 0,6 UV-I 114 W/m 17,8 C 29,0 C 4,1 km/h (1 Bft) 98,19 %
05.08.2017 19:00 27,7 C 28,3 C 58 % 1011,5 hPa 0,0 l/m 1,4 km/h (1 Bft) W 0,00 h 0,102 mm 0,0 UV-I 42 W/m 18,6 C 27,7 C 3,1 km/h (1 Bft) 96,47 %
05.08.2017 20:00 27,0 C 28,3 C 60 % 1011,8 hPa 0,0 l/m 2,4 km/h (1 Bft) W-SW 0,30 h 0,051 mm 0,0 UV-I 26 W/m 18,5 C 27,0 C 4,1 km/h (1 Bft) 98,08 %
05.08.2017 21:00 25,3 C 28,3 C 68 % 1012,5 hPa 0,0 l/m 1,9 km/h (1 Bft) W-SW 0,00 h 0,051 mm 0,0 UV-I 0 W/m 18,9 C 25,3 C 3,7 km/h (1 Bft) 98,02 %
05.08.2017 22:00 25,5 C 28,3 C 68 % 1013,2 hPa 0,0 l/m 5,6 km/h (1 Bft) S 0,00 h 0,025 mm 0,0 UV-I 0 W/m 19,1 C 25,4 C 10,4 km/h (2 Bft) 99,07 %
05.08.2017 23:00 24,3 C 27,9 C 75 % 1012,6 hPa 0,0 l/m 4,3 km/h (1 Bft) S-SW 0,00 h 0,025 mm 0,0 UV-I 0 W/m 19,5 C 24,3 C 7,5 km/h (2 Bft) 96,90 %
06.08.2017 00:00 22,8 C 27,8 C 84 % 1012,3 hPa 0,4 l/m 6,7 km/h (2 Bft) S-SW 0,00 h 0,000 mm 0,0 UV-I 0 W/m 19,9 C 22,6 C 11,3 km/h (2 Bft) 97,98 %
06.08.2017 01:00 19,7 C 27,5 C 89 % 1014,5 hPa 19,6 l/m 10,2 km/h (2 Bft) W-SW 0,00 h 0,025 mm 0,0 UV-I 0 W/m 17,9 C 18,4 C 19,2 km/h (3 Bft) 97,81 %
06.08.2017 02:00 18,8 C 27,2 C 94 % 1015,6 hPa 4,6 l/m 8,7 km/h (2 Bft) S-SW 0,00 h 0,026 mm 0,0 UV-I 0 W/m 17,9 C 17,8 C 15,1 km/h (3 Bft) 99,44 %
06.08.2017 03:00 18,7 C 27,2 C 95 % 1015,7 hPa 0,2 l/m 6,7 km/h (2 Bft) S 0,00 h 0,000 mm 0,0 UV-I 0 W/m 17,8 C 18,3 C 12,3 km/h (3 Bft) 96,00 %
06.08.2017 04:00 18,7 C 27,2 C 95 % 1015,6 hPa 0,6 l/m 8,2 km/h (2 Bft) SW 0,00 h 0,000 mm 0,0 UV-I 0 W/m 17,9 C 17,9 C 13,3 km/h (3 Bft) 98,03 %
06.08.2017 05:00 18,6 C 26,8 C 95 % 1016,3 hPa 2,4 l/m 14,7 km/h (3 Bft) W-SW 0,00 h 0,000 mm 0,0 UV-I 0 W/m 17,7 C 15,6 C 22,4 km/h (4 Bft) 97,70 %
06.08.2017 06:00 18,0 C 26,7 C 95 % 1016,9 hPa 1,2 l/m 12,3 km/h (3 Bft) W-SW 0,00 h 0,025 mm 0,0 UV-I 6 W/m 17,2 C 15,7 C 19,6 km/h (3 Bft) 99,36 %
06.08.2017 07:00 16,8 C 26,7 C 94 % 1018,0 hPa 1,8 l/m 7,1 km/h (2 Bft) W-SW 0,00 h 0,000 mm 0,0 UV-I 18 W/m 15,8 C 16,0 C 11,3 km/h (2 Bft) 96,16 %
06.08.2017 08:00 16,9 C 26,4 C 95 % 1018,5 hPa 0,4 l/m 2,6 km/h (1 Bft) S-SW 0,00 h 0,026 mm 0,4 UV-I 44 W/m 16,1 C 16,9 C 5,2 km/h (1 Bft) 97,92 %
06.08.2017 09:00 17,4 C 26,1 C 95 % 1018,9 hPa 0,2 l/m 4,2 km/h (1 Bft) W-SW 0,00 h 0,025 mm 0,4 UV-I 68 W/m 16,5 C 17,4 C 7,3 km/h (2 Bft) 98,23 %
06.08.2017 10:00 17,7 C 26,1 C 91 % 1019,0 hPa 0,0 l/m 5,9 km/h (2 Bft) SW 0,00 h 0,051 mm 1,1 UV-I 150 W/m 16,3 C 17,6 C 9,9 km/h (2 Bft) 98,93 %
06.08.2017 11:00 17,6 C 26,1 C 90 % 1019,1 hPa 0,0 l/m 3,8 km/h (1 Bft) W 0,00 h 0,101 mm 0,8 UV-I 107 W/m 16,0 C 17,6 C 7,7 km/h (2 Bft) 96,15 %
06.08.2017 12:00 17,1 C 26,1 C 92 % 1019,2 hPa 2,4 l/m 3,3 km/h (1 Bft) W 0,00 h 0,077 mm 0,7 UV-I 82 W/m 15,9 C 17,1 C 6,5 km/h (2 Bft) 98,03 %
06.08.2017 13:00 16,7 C 26,1 C 93 % 1019,3 hPa 0,8 l/m 1,5 km/h (1 Bft) W 0,00 h 0,050 mm 0,8 UV-I 87 W/m 15,6 C 16,7 C 3,6 km/h (1 Bft) 98,21 %
06.08.2017 14:00 16,6 C 26,1 C 92 % 1019,9 hPa 6,2 l/m 2,1 km/h (1 Bft) W-NW 0,00 h 0,051 mm 0,4 UV-I 48 W/m 15,2 C 16,6 C 4,2 km/h (1 Bft) 98,99 %
06.08.2017 15:00 15,7 C 25,6 C 94 % 1020,2 hPa 2,6 l/m 6,2 km/h (2 Bft) W-SW 0,00 h 0,026 mm 0,0 UV-I 56 W/m 14,7 C 15,4 C 10,2 km/h (2 Bft) 96,50 %
06.08.2017 16:00 15,4 C 25,6 C 95 % 1020,4 hPa 3,4 l/m 4,3 km/h (1 Bft) SW 0,00 h 0,025 mm 0,0 UV-I 31 W/m 14,5 C 15,2 C 7,7 km/h (2 Bft) 98,76 %
06.08.2017 17:00 15,2 C 25,6 C 95 % 1020,7 hPa 2,2 l/m 5,6 km/h (1 Bft) W-SW 0,00 h 0,025 mm 0,0 UV-I 24 W/m 14,4 C 14,7 C 10,0 km/h (2 Bft) 97,89 %
06.08.2017 18:00 14,7 C 25,1 C 95 % 1021,0 hPa 4,2 l/m 6,6 km/h (2 Bft) SW 0,00 h 0,026 mm 0,0 UV-I 12 W/m 13,9 C 14,1 C 11,1 km/h (2 Bft) 99,00 %
06.08.2017 19:00 14,6 C 25,0 C 96 % 1020,8 hPa 2,2 l/m 5,2 km/h (1 Bft) SW 0,00 h 0,000 mm 0,0 UV-I 31 W/m 14,0 C 14,5 C 8,3 km/h (2 Bft) 95,93 %
06.08.2017 20:00 14,7 C 25,0 C 96 % 1021,2 hPa 0,2 l/m 4,3 km/h (1 Bft) W-SW 0,00 h 0,025 mm 0,0 UV-I 6 W/m 14,0 C 14,6 C 7,2 km/h (2 Bft) 98,73 %
06.08.2017 21:00 14,7 C 25,0 C 96 % 1022,1 hPa 0,0 l/m 4,1 km/h (1 Bft) SW 0,00 h 0,000 mm 0,0 UV-I 0 W/m 14,0 C 14,7 C 6,6 km/h (2 Bft) 98,28 %
06.08.2017 22:00 14,7 C 24,6 C 96 % 1021,6 hPa 0,0 l/m 3,3 km/h (1 Bft) W 0,00 h 0,000 mm 0,0 UV-I 0 W/m 14,1 C 14,7 C 5,4 km/h (1 Bft) 98,74 %
06.08.2017 23:00 14,8 C 24,4 C 96 % 1021,9 hPa 0,0 l/m 1,1 km/h (1 Bft) W-SW 0,00 h 0,000 mm 0,0 UV-I 0 W/m 14,1 C 14,8 C 2,2 km/h (1 Bft) 96,91 %
Min-Datum _ 06.08.17 31.07.17 01.08.17 01.08.17 - 31.07.17 - - - - - 01.08.17 06.08.17 31.07.17 05.08.17
_ Min-Zeit 18:28 04:16 15:22 21:18 - 02:26 - - - - - 15:22 18:00 02:26 00:12
Minimum _ 14,6 C 23,3 C 27 % 1009,8 hPa - 0,0 km/h (0 Bft) - - - - - 12,8 C 12,0 C 0,0 km/h (0 Bft) 4,76 %
Max-Datum _ 01.08.17 04.08.17 06.08.17 06.08.17 06.08.17 02.08.17 - 01.08.17 01.08.17 04.08.17 04.08.17 04.08.17 01.08.17 02.08.17 31.07.17
_ Max-Zeit 16:22 15:44 08:54 21:18 01:14 00:02 - 11:00 14:02 12:10 12:10 12:44 16:22 00:02 01:34
Maximum _ 35,2 C 28,3 C 96 % 1022,3 hPa 19,6 l/m 40,6 km/h
W-SW (6 Bft)
- 0,07 h 0,635 mm 6,7 UV-I 1090 W/m 22,4 C 35,2 C 62,8 km/h
W-SW (8 Bft)
100,00 %
Durchschnitt _ 24,1 C 26,5 C 70 % 1014,4 hPa #55,6 l/m 4,4 km/h (1 Bft) W-SW #63:52 h #29,515 mm 3,0 UV-I 348 W/m 17,6 C 23,9 C 7,9 km/h (2 Bft) 96,85 %